createdAt,value
2023-02-08T00:04:54.502Z,1.51
2023-02-08T00:09:56.786Z,1.52
2023-02-08T00:14:59.282Z,1.51
2023-02-08T00:20:01.568Z,1.48
2023-02-08T00:25:04.677Z,1.46
2023-02-08T00:30:07.676Z,1.45
2023-02-08T00:35:09.755Z,1.46
2023-02-08T00:40:12.348Z,1.43
2023-02-08T00:45:14.638Z,1.41
2023-02-08T00:50:17.227Z,1.40
2023-02-08T00:55:19.414Z,1.38
2023-02-08T01:00:22.003Z,1.37
2023-02-08T01:05:24.301Z,1.38
2023-02-08T01:10:26.389Z,1.40
2023-02-08T01:15:28.658Z,1.38
2023-02-08T01:20:31.456Z,1.38
2023-02-08T01:25:34.850Z,1.40
2023-02-08T01:30:37.503Z,1.39
2023-02-08T01:35:39.757Z,1.39
2023-02-08T01:40:42.153Z,1.37
2023-02-08T01:45:44.647Z,1.32
2023-02-08T01:51:04.735Z,1.24
2023-02-08T01:56:12.469Z,1.22
2023-02-08T02:01:15.940Z,1.21
2023-02-08T02:06:23.953Z,1.23
2023-02-08T02:11:28.266Z,1.25
2023-02-08T02:16:30.405Z,1.28
2023-02-08T02:21:55.320Z,1.25
2023-02-08T02:27:03.650Z,1.19
2023-02-08T02:32:33.793Z,1.15
2023-02-08T02:37:44.778Z,1.13
2023-02-08T02:43:42.592Z,1.13
2023-02-08T02:49:12.504Z,1.13
2023-02-08T02:54:27.080Z,1.12
2023-02-08T02:59:33.566Z,1.08
2023-02-08T03:04:36.291Z,1.06
2023-02-08T03:10:03.024Z,1.05
2023-02-08T03:15:33.264Z,1.05
2023-02-08T03:20:42.591Z,1.06
2023-02-08T03:26:07.953Z,1.04
2023-02-08T03:31:15.412Z,1.03
2023-02-08T03:36:25.843Z,0.96
2023-02-08T03:41:36.637Z,0.94
2023-02-08T03:46:46.279Z,0.98
2023-02-08T03:51:49.896Z,1.00
2023-02-08T03:57:00.987Z,0.98
2023-02-08T04:02:06.958Z,0.94
2023-02-08T04:07:09.457Z,0.93
2023-02-08T04:12:12.248Z,1.00
2023-02-08T04:17:14.635Z,1.05
2023-02-08T04:22:16.820Z,1.06
2023-02-08T04:27:19.005Z,1.07
2023-02-08T04:32:21.193Z,1.07
2023-02-08T04:37:23.378Z,1.03
2023-02-08T04:42:25.976Z,1.05
2023-02-08T04:47:28.071Z,1.03
2023-02-08T04:52:30.452Z,1.01
2023-02-08T04:57:32.628Z,0.99
2023-02-08T05:02:35.328Z,0.98
2023-02-08T05:07:37.613Z,0.97
2023-02-08T05:12:39.790Z,0.96
2023-02-08T05:17:42.085Z,0.92
2023-02-08T05:22:44.675Z,0.84
2023-02-08T05:27:46.958Z,0.76
2023-02-08T05:32:49.140Z,0.73
2023-02-08T05:37:51.437Z,0.72
2023-02-08T05:42:53.709Z,0.75
2023-02-08T05:47:55.894Z,0.71
2023-02-08T05:52:58.183Z,0.61
2023-02-08T05:58:00.568Z,0.54
2023-02-08T06:03:02.766Z,0.49
2023-02-08T06:08:06.077Z,0.54
2023-02-08T06:13:08.350Z,0.57
2023-02-08T06:18:11.456Z,0.60
2023-02-08T06:23:13.743Z,0.64
2023-02-08T06:28:16.410Z,0.68
2023-02-08T06:33:19.145Z,0.75
2023-02-08T06:38:21.330Z,0.76
2023-02-08T06:43:23.708Z,0.83
2023-02-08T06:48:26.199Z,0.88
2023-02-08T06:53:28.793Z,0.97
2023-02-08T06:58:30.901Z,1.04
2023-02-08T07:03:33.272Z,1.12
2023-02-08T07:08:35.611Z,1.20
2023-02-08T07:13:38.456Z,1.19
2023-02-08T07:18:40.638Z,1.20
2023-02-08T07:23:43.031Z,1.09
2023-02-08T07:28:45.220Z,0.97
2023-02-08T07:33:47.400Z,0.90
2023-02-08T07:38:49.688Z,0.89
2023-02-08T07:43:51.870Z,0.84
2023-02-08T07:48:54.055Z,0.83
2023-02-08T07:53:56.249Z,0.81
2023-02-08T07:58:58.530Z,0.79
2023-02-08T08:04:00.749Z,0.80
2023-02-08T08:09:03.409Z,0.83
2023-02-08T08:14:05.593Z,0.85
2023-02-08T08:19:07.780Z,0.91
2023-02-08T08:24:10.068Z,0.95
2023-02-08T08:29:13.069Z,0.98
2023-02-08T08:34:15.251Z,1.04
2023-02-08T08:39:17.434Z,1.16
2023-02-08T08:44:19.822Z,1.29
2023-02-08T08:49:23.237Z,1.40
2023-02-08T08:54:25.403Z,1.44
2023-02-08T08:59:27.918Z,1.51
2023-02-08T09:04:30.202Z,1.58
2023-02-08T09:09:32.382Z,1.61
2023-02-08T09:14:34.665Z,1.70
2023-02-08T09:19:36.950Z,1.79
2023-02-08T09:24:39.753Z,1.79
2023-02-08T09:29:41.935Z,1.80
2023-02-08T09:34:44.117Z,1.81
2023-02-08T09:39:46.409Z,1.79
2023-02-08T09:45:23.832Z,1.80
2023-02-08T09:50:46.290Z,1.86
2023-02-08T09:56:02.114Z,1.97
2023-02-08T10:01:10.753Z,2.08
2023-02-08T10:06:16.022Z,2.13
2023-02-08T10:11:39.869Z,2.14
2023-02-08T10:17:33.574Z,2.20
2023-02-08T10:23:01.756Z,2.25
2023-02-08T10:28:12.888Z,2.34
2023-02-08T10:33:46.675Z,2.41
2023-02-08T10:38:52.032Z,2.48
2023-02-08T10:44:10.805Z,2.53
2023-02-08T10:49:28.655Z,2.65
2023-02-08T10:54:30.841Z,2.72
2023-02-08T10:59:39.267Z,2.77
2023-02-08T11:04:59.108Z,2.84
2023-02-08T11:10:22.857Z,2.90
2023-02-08T11:15:38.459Z,2.96
2023-02-08T11:20:41.253Z,3.07
2023-02-08T11:25:43.615Z,3.14
2023-02-08T11:30:59.516Z,3.15
2023-02-08T11:36:05.462Z,3.19
2023-02-08T11:41:15.669Z,3.37
2023-02-08T11:46:24.346Z,3.55
2023-02-08T11:51:31.027Z,3.65
2023-02-08T11:56:34.124Z,3.58
2023-02-08T12:01:41.507Z,3.61
2023-02-08T12:06:59.469Z,3.66
2023-02-08T12:12:25.990Z,3.54
2023-02-08T12:17:48.403Z,3.46
2023-02-08T12:23:09.120Z,3.62
2023-02-08T12:28:23.026Z,3.70
2023-02-08T12:33:44.607Z,3.69
2023-02-08T12:39:35.620Z,3.68
2023-02-08T12:45:22.594Z,3.66
2023-02-08T12:50:33.237Z,3.75
2023-02-08T12:55:40.462Z,3.79
2023-02-08T13:00:44.879Z,3.83
2023-02-08T13:06:01.612Z,3.83
2023-02-08T13:11:20.811Z,3.80
2023-02-08T13:16:30.856Z,3.80
2023-02-08T13:21:41.459Z,3.78
2023-02-08T13:26:43.973Z,3.77
2023-02-08T13:31:59.810Z,3.75
2023-02-08T13:37:13.565Z,3.72
2023-02-08T13:42:31.465Z,3.68
2023-02-08T13:47:48.125Z,3.69
2023-02-08T13:52:50.560Z,3.70
2023-02-08T13:57:55.691Z,3.59
2023-02-08T14:03:29.444Z,3.49
2023-02-08T14:09:12.832Z,3.36
2023-02-08T14:14:26.904Z,3.35
2023-02-08T14:19:31.284Z,3.36
2023-02-08T14:24:43.338Z,3.29
2023-02-08T14:30:13.490Z,3.22
2023-02-08T14:35:15.446Z,3.14
2023-02-08T14:40:22.339Z,3.09
2023-02-08T14:45:32.767Z,3.01
2023-02-08T14:50:42.284Z,2.91
2023-02-08T14:56:06.140Z,2.75
2023-02-08T15:01:17.414Z,2.56
2023-02-08T15:06:59.713Z,2.40
2023-02-08T15:12:12.298Z,2.18
2023-02-08T15:17:29.850Z,2.03
2023-02-08T15:22:37.418Z,1.93
2023-02-08T15:27:48.086Z,1.76
2023-02-08T15:32:50.251Z,1.57
2023-02-08T15:37:54.444Z,1.40
2023-02-08T15:43:04.331Z,1.21
2023-02-08T15:48:07.302Z,1.04
2023-02-08T15:53:14.031Z,0.90
2023-02-08T15:58:34.139Z,0.76
2023-02-08T16:03:39.608Z,0.63
2023-02-08T16:08:43.411Z,0.44
2023-02-08T16:13:49.586Z,0.30
2023-02-08T16:19:03.095Z,0.16
2023-02-08T16:24:22.626Z,-0.00
2023-02-08T16:29:31.069Z,-0.14
2023-02-08T16:34:37.392Z,-0.26
2023-02-08T16:39:48.468Z,-0.34
2023-02-08T16:45:20.481Z,-0.43
2023-02-08T16:50:26.461Z,-0.53
2023-02-08T16:55:32.713Z,-0.58
2023-02-08T17:00:35.262Z,-0.64
2023-02-08T17:05:40.049Z,-0.67
2023-02-08T17:10:43.752Z,-0.70
2023-02-08T17:15:48.502Z,-0.75
2023-02-08T17:20:57.522Z,-0.80
2023-02-08T17:26:00.597Z,-0.86
2023-02-08T17:31:03.806Z,-0.89
2023-02-08T17:36:08.452Z,-0.93
2023-02-08T17:41:20.482Z,-0.96
2023-02-08T17:46:27.532Z,-1.01
2023-02-08T17:51:32.448Z,-1.04
2023-02-08T17:56:35.956Z,-1.06
2023-02-08T18:01:40.485Z,-1.08
2023-02-08T18:06:43.748Z,-1.10
2023-02-08T18:11:47.601Z,-1.12
2023-02-08T18:16:51.520Z,-1.16
2023-02-08T18:21:55.195Z,-1.17
2023-02-08T18:26:59.927Z,-1.19
2023-02-08T18:32:05.493Z,-1.19
2023-02-08T18:37:10.451Z,-1.20
2023-02-08T18:53:50.422Z,-1.27
2023-02-08T18:58:59.361Z,-1.31
2023-02-08T19:04:02.921Z,-1.37
2023-02-08T19:09:07.152Z,-1.43
2023-02-08T19:14:10.973Z,-1.47
2023-02-08T19:19:13.164Z,-1.51
2023-02-08T19:24:15.583Z,-1.53
2023-02-08T19:29:22.352Z,-1.59
2023-02-08T19:34:24.736Z,-1.63
2023-02-08T19:39:27.560Z,-1.65
2023-02-08T19:44:30.733Z,-1.69
2023-02-08T19:49:33.132Z,-1.72
2023-02-08T19:54:35.318Z,-1.73
2023-02-08T19:59:37.607Z,-1.73
2023-02-08T20:04:40.816Z,-1.78
2023-02-08T20:09:42.998Z,-1.82
2023-02-08T20:14:45.196Z,-1.94
2023-02-08T20:19:47.572Z,-1.99
2023-02-08T20:24:49.855Z,-2.08
2023-02-08T20:29:55.110Z,-2.14
2023-02-08T20:36:00.889Z,-2.15
2023-02-08T20:41:11.371Z,-2.14
2023-02-08T20:46:18.236Z,-2.17
2023-02-08T20:51:22.392Z,-2.20
2023-02-08T20:56:27.962Z,-2.18
2023-02-08T21:01:31.125Z,-2.19
2023-02-08T21:06:36.137Z,-2.18
2023-02-08T21:11:38.820Z,-2.14
2023-02-08T21:16:41.588Z,-2.17
2023-02-08T21:21:43.877Z,-2.19
2023-02-08T21:26:46.803Z,-2.19
2023-02-08T21:31:53.069Z,-2.20
2023-02-08T21:36:55.871Z,-2.15
2023-02-08T21:41:58.182Z,-2.16
2023-02-08T21:47:02.393Z,-2.21
2023-02-08T21:52:23.628Z,-2.22
2023-02-08T21:57:28.474Z,-2.23
2023-02-08T22:02:30.767Z,-2.25
2023-02-08T22:07:54.563Z,-2.25
2023-02-08T22:12:57.383Z,-2.24
2023-02-08T22:18:02.091Z,-2.23
2023-02-08T22:23:05.399Z,-2.24
2023-02-08T22:28:07.826Z,-2.26
2023-02-08T22:33:11.244Z,-2.27
2023-02-08T22:38:13.515Z,-2.26
2023-02-08T22:43:16.085Z,-2.26
2023-02-08T22:48:18.272Z,-2.28
2023-02-08T22:53:20.879Z,-2.27
2023-02-08T22:58:23.465Z,-2.27
2023-02-08T23:03:25.953Z,-2.27
2023-02-08T23:08:30.181Z,-2.29
2023-02-08T23:13:33.798Z,-2.28
2023-02-08T23:18:36.298Z,-2.24
2023-02-08T23:23:39.594Z,-2.23
2023-02-08T23:28:41.997Z,-2.17
2023-02-08T23:33:44.681Z,-2.12
2023-02-08T23:38:48.505Z,-2.08
2023-02-08T23:43:52.600Z,-2.05
2023-02-08T23:48:55.434Z,-2.05
2023-02-08T23:53:57.745Z,-2.04
2023-02-08T23:59:00.648Z,-2.02
